createdAt,value
2018-11-06T00:00:52.046Z,8.90
2018-11-06T00:03:25.595Z,9.00
2018-11-06T00:05:54.076Z,8.80
2018-11-06T00:08:22.283Z,8.70
2018-11-06T00:10:51.180Z,8.50
2018-11-06T00:13:20.126Z,8.30
2018-11-06T00:15:48.945Z,8.40
2018-11-06T00:18:17.768Z,8.40
2018-11-06T00:20:46.520Z,8.20
2018-11-06T00:23:15.375Z,8.30
2018-11-06T00:25:43.550Z,8.20
2018-11-06T00:28:11.687Z,8.20
2018-11-06T00:30:39.796Z,8.20
2018-11-06T00:33:07.919Z,8.20
2018-11-06T00:35:36.052Z,8.00
2018-11-06T00:38:04.199Z,8.10
2018-11-06T00:40:32.299Z,8.20
2018-11-06T00:43:00.409Z,8.20
2018-11-06T00:45:28.518Z,8.20
2018-11-06T00:47:56.646Z,8.30
2018-11-06T00:50:24.753Z,8.10
2018-11-06T00:52:52.876Z,8.10
2018-11-06T00:55:20.987Z,8.00
2018-11-06T00:57:49.098Z,8.00
2018-11-06T01:00:18.437Z,7.90
2018-11-06T01:02:46.918Z,8.00
2018-11-06T01:05:15.797Z,8.00
2018-11-06T01:07:44.819Z,7.90
2018-11-06T01:10:12.914Z,7.90
2018-11-06T01:12:41.260Z,7.80
2018-11-06T01:15:11.475Z,7.80
2018-11-06T01:17:39.862Z,7.70
2018-11-06T01:20:10.170Z,7.70
2018-11-06T01:22:38.303Z,7.80
2018-11-06T01:25:07.087Z,7.60
2018-11-06T01:27:35.219Z,7.60
2018-11-06T01:30:03.555Z,7.70
2018-11-06T01:32:31.675Z,7.60
2018-11-06T01:34:59.796Z,7.70
2018-11-06T01:37:27.948Z,7.70
2018-11-06T01:39:56.042Z,7.60
2018-11-06T01:42:24.196Z,7.70
2018-11-06T01:44:52.315Z,7.60
2018-11-06T01:47:20.447Z,7.60
2018-11-06T01:49:48.556Z,7.60
2018-11-06T01:52:16.679Z,7.70
2018-11-06T01:54:44.948Z,7.80
2018-11-06T01:57:13.084Z,7.80
2018-11-06T01:59:41.220Z,7.80
2018-11-06T02:02:09.330Z,7.80
2018-11-06T02:04:37.473Z,7.80
2018-11-06T02:07:05.838Z,7.80
2018-11-06T02:09:33.959Z,7.80
2018-11-06T02:12:02.080Z,7.80
2018-11-06T02:14:30.211Z,7.70
2018-11-06T02:16:58.362Z,7.80
2018-11-06T02:19:26.499Z,7.70
2018-11-06T02:21:54.612Z,7.70
2018-11-06T02:24:22.737Z,7.50
2018-11-06T02:26:50.855Z,7.60
2018-11-06T02:29:18.980Z,7.50
2018-11-06T02:31:47.103Z,7.40
2018-11-06T02:34:15.225Z,7.30
2018-11-06T02:36:43.393Z,7.30
2018-11-06T02:39:11.703Z,7.20
2018-11-06T02:41:39.820Z,7.30
2018-11-06T02:44:07.958Z,7.30
2018-11-06T02:46:36.076Z,7.30
2018-11-06T02:49:04.337Z,7.30
2018-11-06T02:51:32.439Z,7.30
2018-11-06T02:54:00.563Z,7.40
2018-11-06T02:56:28.682Z,7.40
2018-11-06T02:58:56.803Z,7.40
2018-11-06T03:01:24.920Z,7.30
2018-11-06T03:03:53.043Z,7.30
2018-11-06T03:06:21.170Z,7.40
2018-11-06T03:08:49.295Z,7.30
2018-11-06T03:11:17.416Z,7.30
2018-11-06T03:13:45.553Z,7.30
2018-11-06T03:16:13.669Z,7.30
2018-11-06T03:18:41.805Z,7.30
2018-11-06T03:21:09.924Z,7.30
2018-11-06T03:23:38.064Z,7.20
2018-11-06T03:26:06.180Z,7.20
2018-11-06T03:28:34.306Z,7.30
2018-11-06T03:31:02.510Z,7.30
2018-11-06T03:33:30.632Z,7.20
2018-11-06T03:35:58.757Z,7.10
2018-11-06T03:38:26.887Z,7.10
2018-11-06T03:40:55.017Z,7.10
2018-11-06T03:43:23.141Z,7.10
2018-11-06T03:45:51.243Z,7.20
2018-11-06T03:48:19.371Z,7.30
2018-11-06T03:50:47.498Z,7.20
2018-11-06T03:53:15.628Z,7.10
2018-11-06T03:55:43.768Z,7.20
2018-11-06T03:58:11.887Z,7.30
2018-11-06T04:00:40.028Z,7.50
2018-11-06T04:03:08.149Z,7.30
2018-11-06T04:05:36.303Z,7.40
2018-11-06T04:08:04.600Z,7.30
2018-11-06T04:10:32.745Z,7.30
2018-11-06T04:13:00.865Z,7.40
2018-11-06T04:15:29.000Z,7.40
2018-11-06T04:17:57.106Z,7.50
2018-11-06T04:20:25.236Z,7.40
2018-11-06T04:22:53.367Z,7.40
2018-11-06T04:25:21.494Z,7.40
2018-11-06T04:27:49.620Z,7.40
2018-11-06T04:30:17.745Z,7.30
2018-11-06T04:32:45.868Z,7.20
2018-11-06T04:35:14.173Z,7.20
2018-11-06T04:37:42.543Z,7.10
2018-11-06T04:40:13.886Z,7.10
2018-11-06T04:42:42.028Z,7.20
2018-11-06T04:45:11.185Z,7.10
2018-11-06T04:47:39.321Z,7.20
2018-11-06T04:50:08.342Z,7.20
2018-11-06T04:52:36.463Z,7.20
2018-11-06T04:55:05.252Z,7.30
2018-11-06T04:57:33.364Z,7.40
2018-11-06T05:00:01.484Z,7.30
2018-11-06T05:02:29.599Z,7.30
2018-11-06T05:04:57.727Z,7.40
2018-11-06T05:07:25.873Z,7.40
2018-11-06T05:09:54.024Z,7.30
2018-11-06T05:12:22.136Z,7.30
2018-11-06T05:14:50.266Z,7.50
2018-11-06T05:17:18.425Z,7.30
2018-11-06T05:19:46.572Z,7.10
2018-11-06T05:22:14.697Z,7.20
2018-11-06T05:24:42.821Z,7.30
2018-11-06T05:27:10.948Z,7.00
2018-11-06T05:29:39.044Z,7.10
2018-11-06T05:32:07.177Z,7.10
2018-11-06T05:34:35.367Z,7.10
2018-11-06T05:37:03.505Z,7.00
2018-11-06T05:39:31.687Z,7.00
2018-11-06T05:41:59.752Z,7.10
2018-11-06T05:44:27.869Z,7.10
2018-11-06T05:46:55.991Z,7.10
2018-11-06T05:49:24.111Z,7.20
2018-11-06T05:51:52.235Z,7.20
2018-11-06T05:54:20.354Z,7.20
2018-11-06T05:56:48.488Z,7.10
2018-11-06T05:59:16.624Z,7.00
2018-11-06T06:01:44.740Z,6.90
2018-11-06T06:04:12.983Z,7.00
2018-11-06T06:06:41.140Z,7.00
2018-11-06T06:09:09.248Z,6.90
2018-11-06T06:11:37.372Z,6.90
2018-11-06T06:14:05.491Z,6.90
2018-11-06T06:16:33.737Z,7.00
2018-11-06T06:19:01.829Z,7.10
2018-11-06T06:21:29.950Z,7.00
2018-11-06T06:23:58.074Z,7.00
2018-11-06T06:26:26.214Z,7.00
2018-11-06T06:28:55.358Z,6.90
2018-11-06T06:31:23.488Z,6.90
2018-11-06T06:33:51.604Z,6.80
2018-11-06T06:36:19.754Z,6.70
2018-11-06T06:38:48.029Z,6.80
2018-11-06T06:41:16.065Z,6.80
2018-11-06T06:43:44.179Z,6.80
2018-11-06T06:46:12.321Z,6.90
2018-11-06T06:48:40.428Z,6.80
2018-11-06T06:51:08.565Z,6.70
2018-11-06T06:53:36.672Z,6.60
2018-11-06T06:56:05.428Z,6.60
2018-11-06T06:58:33.570Z,6.60
2018-11-06T07:01:01.725Z,6.60
2018-11-06T07:03:29.838Z,6.60
2018-11-06T07:05:57.968Z,6.70
2018-11-06T07:08:26.080Z,6.80
2018-11-06T07:10:54.203Z,6.80
2018-11-06T07:13:22.325Z,6.80
2018-11-06T07:15:50.436Z,6.90
2018-11-06T07:18:18.592Z,6.90
2018-11-06T07:20:46.734Z,7.00
2018-11-06T07:23:14.848Z,7.00
2018-11-06T07:25:42.972Z,7.10
2018-11-06T07:28:11.106Z,7.10
2018-11-06T07:30:39.226Z,7.10
2018-11-06T07:33:07.339Z,7.00
2018-11-06T07:35:35.681Z,7.00
2018-11-06T07:38:03.611Z,7.10
2018-11-06T07:40:31.805Z,7.20
2018-11-06T07:42:59.892Z,7.20
2018-11-06T07:45:28.003Z,7.20
2018-11-06T07:47:56.120Z,7.30
2018-11-06T07:50:24.250Z,7.30
2018-11-06T07:52:52.369Z,7.30
2018-11-06T07:55:20.495Z,7.40
2018-11-06T07:57:48.623Z,7.50
2018-11-06T08:00:21.215Z,7.50
2018-11-06T08:02:49.723Z,7.60
2018-11-06T08:05:18.168Z,7.60
2018-11-06T08:07:47.084Z,7.80
2018-11-06T08:10:15.224Z,7.90
2018-11-06T08:12:44.520Z,8.00
2018-11-06T08:15:13.161Z,8.10
2018-11-06T08:17:42.004Z,8.10
2018-11-06T08:20:10.118Z,8.20
2018-11-06T08:22:38.764Z,8.40
2018-11-06T08:25:08.154Z,8.50
2018-11-06T08:27:36.456Z,8.70
2018-11-06T08:30:05.375Z,8.80
2018-11-06T08:32:33.860Z,9.00
2018-11-06T08:35:01.610Z,9.10
2018-11-06T08:37:29.734Z,9.30
2018-11-06T08:39:57.863Z,9.40
2018-11-06T08:42:26.012Z,9.50
2018-11-06T08:44:54.269Z,9.60
2018-11-06T08:47:22.578Z,9.70
2018-11-06T08:49:50.687Z,9.80
2018-11-06T08:52:18.807Z,10.00
2018-11-06T08:54:46.962Z,10.10
2018-11-06T08:57:15.093Z,10.30
2018-11-06T08:59:43.324Z,10.40
2018-11-06T09:02:11.602Z,10.50
2018-11-06T09:04:40.009Z,10.60
2018-11-06T09:07:08.157Z,10.80
2018-11-06T09:09:36.301Z,11.00
2018-11-06T09:12:04.451Z,11.20
2018-11-06T09:14:32.589Z,11.40
2018-11-06T09:17:00.747Z,11.60
2018-11-06T09:19:28.827Z,11.70
2018-11-06T09:21:56.965Z,11.90
2018-11-06T09:24:25.087Z,11.90
2018-11-06T09:26:53.212Z,12.20
2018-11-06T09:29:21.408Z,12.30
2018-11-06T09:31:49.541Z,12.50
2018-11-06T09:34:17.671Z,12.60
2018-11-06T09:36:45.799Z,12.70
2018-11-06T09:39:13.923Z,12.80
2018-11-06T09:41:42.304Z,12.90
2018-11-06T09:44:10.434Z,13.00
2018-11-06T09:46:38.651Z,13.10
2018-11-06T09:49:07.252Z,13.20
2018-11-06T09:51:35.464Z,13.30
2018-11-06T09:54:03.585Z,13.50
2018-11-06T09:56:31.721Z,13.60
2018-11-06T09:58:59.840Z,13.70
2018-11-06T10:01:27.951Z,13.80
2018-11-06T10:03:56.132Z,13.90
2018-11-06T10:06:24.397Z,14.10
2018-11-06T10:08:52.444Z,14.20
2018-11-06T10:11:20.825Z,14.30
2018-11-06T10:13:48.939Z,14.30
2018-11-06T10:16:17.077Z,14.50
2018-11-06T10:18:45.201Z,14.70
2018-11-06T10:21:13.353Z,14.70
2018-11-06T10:23:41.430Z,14.80
2018-11-06T10:26:09.552Z,14.90
2018-11-06T10:28:37.702Z,15.00
2018-11-06T10:31:05.837Z,15.20
2018-11-06T10:33:33.975Z,15.40
2018-11-06T10:36:02.112Z,15.50
2018-11-06T10:38:30.265Z,15.70
2018-11-06T10:40:58.395Z,15.80
2018-11-06T10:43:26.523Z,16.00
2018-11-06T10:45:54.655Z,16.10
2018-11-06T10:48:22.798Z,16.30
2018-11-06T10:50:50.925Z,16.40
2018-11-06T10:53:19.054Z,16.50
2018-11-06T10:55:47.739Z,16.60
2018-11-06T10:58:15.935Z,16.70
2018-11-06T11:00:49.419Z,16.80
2018-11-06T11:03:22.809Z,17.00
2018-11-06T11:05:50.946Z,17.10
2018-11-06T11:08:19.095Z,17.20
2018-11-06T11:10:47.236Z,17.30
2018-11-06T11:13:15.457Z,17.30
2018-11-06T11:15:43.548Z,17.40
2018-11-06T11:18:11.676Z,17.50
2018-11-06T11:20:39.794Z,17.50
2018-11-06T11:23:07.933Z,17.50
2018-11-06T11:25:36.096Z,17.60
2018-11-06T11:28:04.308Z,17.60
2018-11-06T11:30:32.515Z,17.60
2018-11-06T11:33:00.652Z,17.60
2018-11-06T11:35:29.230Z,17.70
2018-11-06T11:37:57.353Z,17.60
2018-11-06T11:40:25.484Z,17.70
2018-11-06T11:42:53.603Z,17.80
2018-11-06T11:45:21.724Z,17.80
2018-11-06T11:47:49.854Z,17.90
2018-11-06T11:50:17.983Z,17.90
2018-11-06T11:52:46.090Z,17.90
2018-11-06T11:55:14.223Z,17.90
2018-11-06T11:57:42.347Z,18.00
2018-11-06T12:00:15.986Z,18.10
2018-11-06T12:02:44.005Z,18.10
2018-11-06T12:05:12.441Z,18.10
2018-11-06T12:07:40.625Z,18.10
2018-11-06T12:10:09.922Z,18.10
2018-11-06T12:12:38.109Z,18.20
2018-11-06T12:15:08.618Z,18.20
2018-11-06T12:17:36.726Z,18.20
2018-11-06T12:20:05.075Z,18.20
2018-11-06T12:22:33.187Z,18.20
2018-11-06T12:25:01.544Z,18.30
2018-11-06T12:27:29.438Z,18.30
2018-11-06T12:29:57.563Z,18.40
2018-11-06T12:32:25.698Z,18.30
2018-11-06T12:34:53.816Z,18.30
2018-11-06T12:37:21.929Z,18.40
2018-11-06T12:39:50.060Z,18.40
2018-11-06T12:42:18.265Z,18.40
2018-11-06T12:44:46.386Z,18.40
2018-11-06T12:47:14.581Z,18.40
2018-11-06T12:49:42.707Z,18.40
2018-11-06T12:52:10.828Z,18.40
2018-11-06T12:54:38.962Z,18.50
2018-11-06T12:57:07.094Z,18.50
2018-11-06T12:59:35.216Z,18.40
2018-11-06T13:02:03.641Z,18.30
2018-11-06T13:04:31.780Z,18.30
2018-11-06T13:06:59.912Z,18.20
2018-11-06T13:09:28.040Z,18.20
2018-11-06T13:11:56.180Z,18.10
2018-11-06T13:14:24.288Z,18.00
2018-11-06T13:16:52.468Z,18.00
2018-11-06T13:19:20.563Z,17.90
2018-11-06T13:21:48.691Z,17.90
2018-11-06T13:24:16.810Z,17.90
2018-11-06T13:26:44.957Z,17.80
2018-11-06T13:29:13.065Z,17.80
2018-11-06T13:31:41.226Z,17.80
2018-11-06T13:34:09.352Z,17.70
2018-11-06T13:36:37.479Z,17.70
2018-11-06T13:39:08.155Z,17.70
2018-11-06T13:41:36.398Z,17.70
2018-11-06T13:44:04.839Z,17.70
2018-11-06T13:46:32.860Z,17.70
2018-11-06T13:49:01.028Z,17.60
2018-11-06T13:51:29.180Z,17.60
2018-11-06T13:53:57.299Z,17.60
2018-11-06T13:56:25.417Z,17.60
2018-11-06T13:58:53.564Z,17.50
2018-11-06T14:01:21.683Z,17.50
2018-11-06T14:03:49.813Z,17.50
2018-11-06T14:06:17.951Z,17.40
2018-11-06T14:08:46.064Z,17.30
2018-11-06T14:11:14.277Z,17.20
2018-11-06T14:13:42.399Z,17.10
2018-11-06T14:16:10.545Z,17.10
2018-11-06T14:18:38.658Z,17.10
2018-11-06T14:21:06.825Z,17.00
2018-11-06T14:23:34.898Z,16.90
2018-11-06T14:26:03.011Z,16.80
2018-11-06T14:28:31.136Z,16.80
2018-11-06T14:30:59.259Z,16.70
2018-11-06T14:33:27.380Z,16.70
2018-11-06T14:35:55.613Z,16.60
2018-11-06T14:38:23.650Z,16.40
2018-11-06T14:40:51.780Z,16.40
2018-11-06T14:43:19.901Z,16.30
2018-11-06T14:45:48.011Z,16.30
2018-11-06T14:48:16.153Z,16.20
2018-11-06T14:50:44.305Z,16.20
2018-11-06T14:53:12.411Z,16.10
2018-11-06T14:55:40.527Z,16.10
2018-11-06T14:58:08.684Z,16.10
2018-11-06T15:00:36.815Z,15.90
2018-11-06T15:03:05.200Z,15.80
2018-11-06T15:05:33.373Z,15.70
2018-11-06T15:08:01.445Z,15.70
2018-11-06T15:10:29.560Z,15.60
2018-11-06T15:12:57.692Z,15.50
2018-11-06T15:15:26.034Z,15.40
2018-11-06T15:17:54.168Z,15.30
2018-11-06T15:20:22.880Z,15.20
2018-11-06T15:22:51.021Z,15.20
2018-11-06T15:25:19.551Z,15.20
2018-11-06T15:27:48.692Z,15.10
2018-11-06T15:30:17.857Z,15.00
2018-11-06T15:32:45.972Z,14.90
2018-11-06T15:35:15.209Z,14.80
2018-11-06T15:37:43.349Z,14.70
2018-11-06T15:40:13.644Z,14.60
2018-11-06T15:42:41.830Z,14.50
2018-11-06T15:45:11.497Z,14.50
2018-11-06T15:47:40.231Z,14.40
2018-11-06T15:50:09.997Z,14.30
2018-11-06T15:52:38.508Z,14.20
2018-11-06T15:55:06.712Z,14.20
2018-11-06T15:57:35.149Z,14.10
2018-11-06T16:00:04.074Z,14.00
2018-11-06T16:02:32.224Z,14.00
2018-11-06T16:05:00.345Z,13.90
2018-11-06T16:07:28.478Z,13.80
2018-11-06T16:09:56.592Z,13.70
2018-11-06T16:12:24.716Z,13.50
2018-11-06T16:14:52.835Z,13.40
2018-11-06T16:17:20.964Z,13.30
2018-11-06T16:19:49.100Z,13.10
2018-11-06T16:22:17.249Z,13.00
2018-11-06T16:24:45.373Z,12.90
2018-11-06T16:27:13.493Z,12.80
2018-11-06T16:29:41.646Z,12.70
2018-11-06T16:32:09.753Z,12.70
2018-11-06T16:34:37.885Z,12.70
2018-11-06T16:37:06.276Z,12.60
2018-11-06T16:39:34.436Z,12.60
2018-11-06T16:42:02.580Z,12.60
2018-11-06T16:44:30.712Z,12.60
2018-11-06T16:46:58.835Z,12.60
2018-11-06T16:49:27.083Z,12.50
2018-11-06T16:51:55.228Z,12.40
2018-11-06T16:54:23.366Z,12.40
2018-11-06T16:56:51.516Z,12.40
2018-11-06T16:59:19.637Z,12.40
2018-11-06T17:01:47.815Z,12.40
2018-11-06T17:04:16.010Z,12.40
2018-11-06T17:06:47.107Z,12.40
2018-11-06T17:09:15.472Z,12.30
2018-11-06T17:11:43.941Z,12.30
2018-11-06T17:14:12.080Z,12.30
2018-11-06T17:16:40.209Z,12.30
2018-11-06T17:19:08.357Z,12.20
2018-11-06T17:21:36.743Z,12.20
2018-11-06T17:24:05.225Z,12.20
2018-11-06T17:26:33.372Z,11.90
2018-11-06T17:29:02.028Z,11.80
2018-11-06T17:31:30.160Z,11.80
2018-11-06T17:33:58.280Z,11.70
2018-11-06T17:36:26.401Z,11.60
2018-11-06T17:38:54.604Z,11.40
2018-11-06T17:41:22.739Z,11.40
2018-11-06T17:43:50.877Z,11.50
2018-11-06T17:46:19.002Z,11.50
2018-11-06T17:48:47.141Z,11.50
2018-11-06T17:51:15.262Z,11.60
2018-11-06T17:53:43.392Z,11.60
2018-11-06T17:56:11.520Z,11.60
2018-11-06T17:58:39.696Z,11.40
2018-11-06T18:01:07.817Z,11.30
2018-11-06T18:03:35.937Z,11.30
2018-11-06T18:06:04.054Z,11.30
2018-11-06T18:08:32.198Z,11.40
2018-11-06T18:11:00.321Z,11.40
2018-11-06T18:13:28.448Z,11.40
2018-11-06T18:15:56.565Z,11.40
2018-11-06T18:18:24.700Z,11.30
2018-11-06T18:20:52.819Z,11.30
2018-11-06T18:23:20.957Z,11.30
2018-11-06T18:25:49.275Z,11.20
2018-11-06T18:28:35.492Z,11.20
2018-11-06T18:31:03.625Z,11.20
2018-11-06T18:33:31.831Z,11.00
2018-11-06T18:35:59.921Z,11.00
2018-11-06T18:38:28.168Z,10.90
2018-11-06T18:40:56.175Z,11.00
2018-11-06T18:43:24.349Z,10.80
2018-11-06T18:45:52.459Z,10.60
2018-11-06T18:48:20.564Z,10.70
2018-11-06T18:50:48.688Z,10.70
2018-11-06T18:53:16.846Z,10.70
2018-11-06T18:55:45.027Z,10.70
2018-11-06T18:58:13.266Z,10.70
2018-11-06T19:00:41.304Z,10.60
2018-11-06T19:03:09.408Z,10.40
2018-11-06T19:05:37.518Z,10.40
2018-11-06T19:08:05.864Z,10.40
2018-11-06T19:10:33.985Z,10.40
2018-11-06T19:13:02.075Z,10.50
2018-11-06T19:15:30.203Z,10.40
2018-11-06T19:17:58.311Z,10.50
2018-11-06T19:20:26.431Z,10.40
2018-11-06T19:22:54.566Z,10.30
2018-11-06T19:25:22.673Z,10.30
2018-11-06T19:27:50.766Z,10.30
2018-11-06T19:30:19.718Z,10.30
2018-11-06T19:32:48.071Z,10.30
2018-11-06T19:35:16.202Z,10.40
2018-11-06T19:37:44.634Z,10.40
2018-11-06T19:40:14.042Z,10.30
2018-11-06T19:42:43.063Z,10.30
2018-11-06T19:45:11.747Z,10.30
2018-11-06T19:47:39.834Z,10.20
2018-11-06T19:50:09.524Z,10.10
2018-11-06T19:52:37.908Z,9.90
2018-11-06T19:55:06.920Z,9.80
2018-11-06T19:57:35.002Z,9.80
2018-11-06T20:00:03.686Z,9.80
2018-11-06T20:02:31.771Z,9.80
2018-11-06T20:04:59.871Z,9.90
2018-11-06T20:07:27.950Z,9.90
2018-11-06T20:09:56.080Z,10.00
2018-11-06T20:12:24.256Z,10.00
2018-11-06T20:14:52.288Z,10.00
2018-11-06T20:17:20.444Z,10.00
2018-11-06T20:19:48.467Z,9.90
2018-11-06T20:22:16.575Z,9.90
2018-11-06T20:24:44.691Z,9.70
2018-11-06T20:27:12.777Z,9.60
2018-11-06T20:29:40.919Z,9.60
2018-11-06T20:32:08.950Z,9.70
2018-11-06T20:34:37.117Z,9.70
2018-11-06T20:37:13.785Z,9.80
2018-11-06T20:39:41.938Z,9.80
2018-11-06T20:42:10.026Z,9.70
2018-11-06T20:44:38.119Z,9.70
2018-11-06T20:47:06.223Z,9.70
2018-11-06T20:49:34.332Z,9.70
2018-11-06T20:52:02.458Z,9.60
2018-11-06T20:54:30.615Z,9.60
2018-11-06T20:56:58.792Z,9.60
2018-11-06T20:59:26.903Z,9.60
2018-11-06T21:01:55.010Z,9.60
2018-11-06T21:04:23.119Z,9.50
2018-11-06T21:06:51.256Z,9.50
2018-11-06T21:09:19.371Z,9.50
2018-11-06T21:11:47.533Z,9.50
2018-11-06T21:14:15.599Z,9.40
2018-11-06T21:16:43.707Z,9.30
2018-11-06T21:19:11.933Z,9.20
2018-11-06T21:21:40.035Z,9.10
2018-11-06T21:24:08.142Z,9.00
2018-11-06T21:26:39.267Z,8.90
2018-11-06T21:29:07.365Z,9.00
2018-11-06T21:31:35.503Z,9.10
2018-11-06T21:34:03.613Z,9.10
2018-11-06T21:36:31.725Z,9.00
2018-11-06T21:38:59.867Z,9.00
2018-11-06T21:41:27.986Z,9.00
2018-11-06T21:43:56.094Z,9.10
2018-11-06T21:46:24.199Z,8.90
2018-11-06T21:48:52.338Z,8.90
2018-11-06T21:51:20.445Z,8.90
2018-11-06T21:53:48.553Z,8.90
2018-11-06T21:56:16.670Z,8.90
2018-11-06T21:58:44.935Z,8.90
2018-11-06T22:01:12.991Z,9.00
2018-11-06T22:03:41.099Z,8.80
2018-11-06T22:06:09.201Z,8.80
2018-11-06T22:08:37.354Z,8.80
2018-11-06T22:11:05.483Z,8.80
2018-11-06T22:13:33.636Z,8.70
2018-11-06T22:16:01.766Z,8.60
2018-11-06T22:18:29.875Z,8.50
2018-11-06T22:20:57.974Z,8.50
2018-11-06T22:23:26.084Z,8.50
2018-11-06T22:25:54.170Z,8.70
2018-11-06T22:28:22.265Z,8.70
2018-11-06T22:30:50.395Z,8.50
2018-11-06T22:33:18.511Z,8.40
2018-11-06T22:35:46.615Z,8.30
2018-11-06T22:38:14.723Z,8.30
2018-11-06T22:40:42.829Z,8.40
2018-11-06T22:43:10.932Z,8.50
2018-11-06T22:45:39.031Z,8.50
2018-11-06T22:48:07.145Z,8.50
2018-11-06T22:50:35.255Z,8.50
2018-11-06T22:53:03.408Z,8.50
2018-11-06T22:55:31.473Z,8.40
2018-11-06T22:57:59.615Z,8.30
2018-11-06T23:00:33.859Z,8.10
2018-11-06T23:03:02.055Z,8.20
2018-11-06T23:05:30.261Z,8.20
2018-11-06T23:08:03.936Z,8.20
2018-11-06T23:10:32.104Z,8.30
2018-11-06T23:13:00.178Z,8.20
2018-11-06T23:15:28.311Z,8.20
2018-11-06T23:17:56.435Z,8.20
2018-11-06T23:20:24.546Z,8.20
2018-11-06T23:22:52.705Z,8.10
2018-11-06T23:25:20.821Z,8.10
2018-11-06T23:27:48.954Z,8.00
2018-11-06T23:30:17.056Z,7.90
2018-11-06T23:32:45.174Z,7.80
2018-11-06T23:35:13.288Z,7.80
2018-11-06T23:37:41.448Z,7.80
2018-11-06T23:40:10.153Z,7.80
2018-11-06T23:42:38.388Z,7.80
2018-11-06T23:45:06.972Z,7.90
2018-11-06T23:47:35.197Z,7.70
2018-11-06T23:50:03.662Z,7.80
2018-11-06T23:52:31.770Z,7.70
2018-11-06T23:55:00.219Z,7.80
2018-11-06T23:57:29.426Z,7.80
2018-11-06T23:59:57.913Z,7.80
